sensor_id;sensor_type;location;lat;lon;timestamp;P1;durP1;ratioP1;P2;durP2;ratioP2
21569;SDS011;57598;50.888;4.746;2023-01-28T00:02:53;32.83;;;30.92;;
21569;SDS011;57598;50.888;4.746;2023-01-28T00:08:51;33.22;;;31.33;;
21569;SDS011;57598;50.888;4.746;2023-01-28T00:11:30;33.28;;;31.33;;
21569;SDS011;57598;50.888;4.746;2023-01-28T00:13:59;32.47;;;30.58;;
21569;SDS011;57598;50.888;4.746;2023-01-28T00:16:33;32.58;;;30.67;;
21569;SDS011;57598;50.888;4.746;2023-01-28T00:19:15;34.33;;;32.15;;
21569;SDS011;57598;50.888;4.746;2023-01-28T00:21:42;34.67;;;32.67;;
21569;SDS011;57598;50.888;4.746;2023-01-28T00:24:14;32.80;;;30.90;;
21569;SDS011;57598;50.888;4.746;2023-01-28T00:26:55;32.53;;;30.63;;
21569;SDS011;57598;50.888;4.746;2023-01-28T00:32:35;33.65;;;31.67;;
21569;SDS011;57598;50.888;4.746;2023-01-28T00:35:16;36.13;;;33.92;;
21569;SDS011;57598;50.888;4.746;2023-01-28T00:38:00;34.08;;;32.08;;
21569;SDS011;57598;50.888;4.746;2023-01-28T00:46:39;36.92;;;34.22;;
21569;SDS011;57598;50.888;4.746;2023-01-28T00:49:13;34.35;;;32.35;;
21569;SDS011;57598;50.888;4.746;2023-01-28T00:51:46;35.13;;;32.95;;
21569;SDS011;57598;50.888;4.746;2023-01-28T01:00:29;36.05;;;33.55;;
21569;SDS011;57598;50.888;4.746;2023-01-28T01:09:54;35.38;;;33.28;;
21569;SDS011;57598;50.888;4.746;2023-01-28T01:12:50;35.67;;;33.58;;
21569;SDS011;57598;50.888;4.746;2023-01-28T01:15:29;35.03;;;32.92;;
21569;SDS011;57598;50.888;4.746;2023-01-28T01:18:21;35.42;;;33.00;;
21569;SDS011;57598;50.888;4.746;2023-01-28T01:21:19;37.00;;;34.80;;
21569;SDS011;57598;50.888;4.746;2023-01-28T01:24:06;35.42;;;33.22;;
21569;SDS011;57598;50.888;4.746;2023-01-28T01:26:49;35.38;;;33.28;;
21569;SDS011;57598;50.888;4.746;2023-01-28T01:29:22;36.13;;;33.92;;
21569;SDS011;57598;50.888;4.746;2023-01-28T01:32:13;34.97;;;32.88;;
21569;SDS011;57598;50.888;4.746;2023-01-28T01:34:57;35.88;;;33.78;;
21569;SDS011;57598;50.888;4.746;2023-01-28T01:37:44;36.53;;;34.33;;
21569;SDS011;57598;50.888;4.746;2023-01-28T01:40:29;36.45;;;34.25;;
21569;SDS011;57598;50.888;4.746;2023-01-28T01:43:07;35.10;;;33.00;;
21569;SDS011;57598;50.888;4.746;2023-01-28T01:45:45;35.80;;;33.60;;
21569;SDS011;57598;50.888;4.746;2023-01-28T01:48:19;37.13;;;34.72;;
21569;SDS011;57598;50.888;4.746;2023-01-28T01:50:53;37.75;;;35.45;;
21569;SDS011;57598;50.888;4.746;2023-01-28T01:53:39;40.15;;;37.53;;
21569;SDS011;57598;50.888;4.746;2023-01-28T01:56:26;42.13;;;39.20;;
21569;SDS011;57598;50.888;4.746;2023-01-28T01:59:13;35.80;;;33.63;;
21569;SDS011;57598;50.888;4.746;2023-01-28T02:01:55;35.80;;;33.70;;
21569;SDS011;57598;50.888;4.746;2023-01-28T02:04:33;37.28;;;35.03;;
21569;SDS011;57598;50.888;4.746;2023-01-28T02:09:53;37.03;;;34.78;;
21569;SDS011;57598;50.888;4.746;2023-01-28T02:12:34;36.88;;;34.67;;
21569;SDS011;57598;50.888;4.746;2023-01-28T02:18:16;37.70;;;35.30;;
21569;SDS011;57598;50.888;4.746;2023-01-28T02:23:51;42.90;;;39.50;;
21569;SDS011;57598;50.888;4.746;2023-01-28T02:26:39;56.40;;;39.03;;
21569;SDS011;57598;50.888;4.746;2023-01-28T02:29:16;37.53;;;35.20;;
21569;SDS011;57598;50.888;4.746;2023-01-28T02:31:57;38.33;;;35.90;;
21569;SDS011;57598;50.888;4.746;2023-01-28T02:34:35;36.05;;;33.95;;
21569;SDS011;57598;50.888;4.746;2023-01-28T02:37:22;38.00;;;35.13;;
21569;SDS011;57598;50.888;4.746;2023-01-28T02:39:58;39.17;;;36.50;;
21569;SDS011;57598;50.888;4.746;2023-01-28T02:42:33;38.90;;;36.03;;
21569;SDS011;57598;50.888;4.746;2023-01-28T02:45:26;34.25;;;32.25;;
21569;SDS011;57598;50.888;4.746;2023-01-28T02:48:15;37.00;;;34.58;;
21569;SDS011;57598;50.888;4.746;2023-01-28T02:50:53;39.05;;;36.55;;
21569;SDS011;57598;50.888;4.746;2023-01-28T02:53:29;39.72;;;37.17;;
21569;SDS011;57598;50.888;4.746;2023-01-28T02:56:26;36.80;;;34.53;;
21569;SDS011;57598;50.888;4.746;2023-01-28T02:59:30;38.28;;;35.65;;
21569;SDS011;57598;50.888;4.746;2023-01-28T06:00:54;34.83;;;32.83;;
21569;SDS011;57598;50.888;4.746;2023-01-28T06:19:10;30.95;;;29.15;;
21569;SDS011;57598;50.888;4.746;2023-01-28T06:21:59;30.15;;;28.35;;
21569;SDS011;57598;50.888;4.746;2023-01-28T06:28:01;29.90;;;28.20;;
21569;SDS011;57598;50.888;4.746;2023-01-28T06:30:43;29.95;;;28.25;;
21569;SDS011;57598;50.888;4.746;2023-01-28T07:43:36;30.90;;;29.08;;
21569;SDS011;57598;50.888;4.746;2023-01-28T07:55:21;31.92;;;29.75;;
21569;SDS011;57598;50.888;4.746;2023-01-28T08:16:12;28.73;;;27.13;;
21569;SDS011;57598;50.888;4.746;2023-01-28T08:18:47;29.40;;;27.60;;
21569;SDS011;57598;50.888;4.746;2023-01-28T08:27:33;26.48;;;24.98;;
21569;SDS011;57598;50.888;4.746;2023-01-28T08:30:10;27.77;;;26.17;;
21569;SDS011;57598;50.888;4.746;2023-01-28T08:33:14;26.67;;;25.17;;
21569;SDS011;57598;50.888;4.746;2023-01-28T08:35:44;26.23;;;24.73;;
21569;SDS011;57598;50.888;4.746;2023-01-28T09:22:50;27.20;;;25.60;;
21569;SDS011;57598;50.888;4.746;2023-01-28T09:25:17;24.75;;;23.35;;
21569;SDS011;57598;50.888;4.746;2023-01-28T09:30:51;27.58;;;25.73;;
21569;SDS011;57598;50.888;4.746;2023-01-28T09:33:18;26.58;;;25.08;;
21569;SDS011;57598;50.888;4.746;2023-01-28T09:36:05;25.27;;;23.88;;
21569;SDS011;57598;50.888;4.746;2023-01-28T09:44:46;27.35;;;25.70;;
21569;SDS011;57598;50.888;4.746;2023-01-28T09:47:20;25.55;;;23.92;;
21569;SDS011;57598;50.888;4.746;2023-01-28T09:55:56;28.85;;;26.45;;
21569;SDS011;57598;50.888;4.746;2023-01-28T09:58:23;25.45;;;23.95;;
21569;SDS011;57598;50.888;4.746;2023-01-28T10:00:53;26.80;;;24.92;;
21569;SDS011;57598;50.888;4.746;2023-01-28T10:03:43;23.30;;;22.00;;
21569;SDS011;57598;50.888;4.746;2023-01-28T10:06:18;26.25;;;24.50;;
21569;SDS011;57598;50.888;4.746;2023-01-28T10:08:59;25.52;;;24.00;;
21569;SDS011;57598;50.888;4.746;2023-01-28T10:11:32;23.92;;;22.52;;
21569;SDS011;57598;50.888;4.746;2023-01-28T10:14:05;24.20;;;22.80;;
21569;SDS011;57598;50.888;4.746;2023-01-28T10:16:37;23.88;;;22.58;;
21569;SDS011;57598;50.888;4.746;2023-01-28T10:21:35;24.08;;;22.63;;
21569;SDS011;57598;50.888;4.746;2023-01-28T10:24:04;23.17;;;21.88;;
21569;SDS011;57598;50.888;4.746;2023-01-28T10:26:34;25.92;;;24.42;;
21569;SDS011;57598;50.888;4.746;2023-01-28T10:29:04;24.17;;;22.45;;
21569;SDS011;57598;50.888;4.746;2023-01-28T10:31:38;23.50;;;22.13;;
21569;SDS011;57598;50.888;4.746;2023-01-28T10:34:08;23.02;;;21.73;;
21569;SDS011;57598;50.888;4.746;2023-01-28T10:36:35;24.33;;;22.92;;
21569;SDS011;57598;50.888;4.746;2023-01-28T10:39:03;23.75;;;22.45;;
21569;SDS011;57598;50.888;4.746;2023-01-28T10:41:33;22.95;;;21.65;;
21569;SDS011;57598;50.888;4.746;2023-01-28T10:44:01;24.48;;;23.00;;
21569;SDS011;57598;50.888;4.746;2023-01-28T10:46:29;23.58;;;22.10;;
21569;SDS011;57598;50.888;4.746;2023-01-28T10:49:01;26.02;;;23.70;;
21569;SDS011;57598;50.888;4.746;2023-01-28T10:51:36;26.83;;;24.92;;
21569;SDS011;57598;50.888;4.746;2023-01-28T10:54:16;24.27;;;22.77;;
21569;SDS011;57598;50.888;4.746;2023-01-28T10:56:44;25.10;;;23.40;;
21569;SDS011;57598;50.888;4.746;2023-01-28T10:59:17;25.20;;;23.60;;
21569;SDS011;57598;50.888;4.746;2023-01-28T11:01:46;24.50;;;23.05;;
21569;SDS011;57598;50.888;4.746;2023-01-28T11:04:16;27.15;;;25.17;;
21569;SDS011;57598;50.888;4.746;2023-01-28T11:06:51;23.95;;;22.55;;
21569;SDS011;57598;50.888;4.746;2023-01-28T11:09:22;24.58;;;22.98;;
21569;SDS011;57598;50.888;4.746;2023-01-28T11:11:49;24.02;;;22.65;;
21569;SDS011;57598;50.888;4.746;2023-01-28T11:14:23;24.80;;;23.10;;
21569;SDS011;57598;50.888;4.746;2023-01-28T11:16:52;26.17;;;24.40;;
21569;SDS011;57598;50.888;4.746;2023-01-28T11:19:26;26.95;;;24.90;;
21569;SDS011;57598;50.888;4.746;2023-01-28T11:21:54;24.33;;;22.60;;
21569;SDS011;57598;50.888;4.746;2023-01-28T11:24:25;24.80;;;23.30;;
21569;SDS011;57598;50.888;4.746;2023-01-28T11:26:55;24.58;;;23.05;;
21569;SDS011;57598;50.888;4.746;2023-01-28T11:29:24;22.17;;;20.90;;
21569;SDS011;57598;50.888;4.746;2023-01-28T11:31:52;23.55;;;22.00;;
21569;SDS011;57598;50.888;4.746;2023-01-28T11:34:20;23.00;;;21.70;;
21569;SDS011;57598;50.888;4.746;2023-01-28T11:36:53;23.92;;;22.52;;
21569;SDS011;57598;50.888;4.746;2023-01-28T11:39:21;26.90;;;23.75;;
21569;SDS011;57598;50.888;4.746;2023-01-28T11:41:50;22.58;;;21.27;;
21569;SDS011;57598;50.888;4.746;2023-01-28T11:44:19;26.33;;;23.45;;
21569;SDS011;57598;50.888;4.746;2023-01-28T11:46:50;24.60;;;23.10;;
21569;SDS011;57598;50.888;4.746;2023-01-28T11:49:21;22.80;;;21.50;;
21569;SDS011;57598;50.888;4.746;2023-01-28T11:51:55;22.75;;;21.45;;
21569;SDS011;57598;50.888;4.746;2023-01-28T11:54:27;23.13;;;21.83;;
21569;SDS011;57598;50.888;4.746;2023-01-28T11:57:05;22.95;;;21.65;;
21569;SDS011;57598;50.888;4.746;2023-01-28T11:59:50;27.10;;;25.02;;
21569;SDS011;57598;50.888;4.746;2023-01-28T12:02:24;22.35;;;21.00;;
21569;SDS011;57598;50.888;4.746;2023-01-28T12:05:03;22.15;;;20.92;;
21569;SDS011;57598;50.888;4.746;2023-01-28T12:07:37;25.33;;;23.48;;
21569;SDS011;57598;50.888;4.746;2023-01-28T12:10:08;22.27;;;20.95;;
21569;SDS011;57598;50.888;4.746;2023-01-28T12:12:43;22.25;;;20.95;;
21569;SDS011;57598;50.888;4.746;2023-01-28T12:15:22;23.20;;;21.67;;
21569;SDS011;57598;50.888;4.746;2023-01-28T12:17:56;22.88;;;21.42;;
21569;SDS011;57598;50.888;4.746;2023-01-28T12:20:28;22.75;;;21.35;;
21569;SDS011;57598;50.888;4.746;2023-01-28T12:23:12;23.48;;;22.02;;
21569;SDS011;57598;50.888;4.746;2023-01-28T12:25:50;21.38;;;20.17;;
21569;SDS011;57598;50.888;4.746;2023-01-28T12:28:23;23.35;;;22.00;;
21569;SDS011;57598;50.888;4.746;2023-01-28T12:31:01;26.27;;;24.48;;
21569;SDS011;57598;50.888;4.746;2023-01-28T12:33:40;24.23;;;22.73;;
21569;SDS011;57598;50.888;4.746;2023-01-28T12:36:18;22.75;;;21.25;;
21569;SDS011;57598;50.888;4.746;2023-01-28T12:38:51;27.13;;;25.33;;
21569;SDS011;57598;50.888;4.746;2023-01-28T12:41:22;22.25;;;20.95;;
21569;SDS011;57598;50.888;4.746;2023-01-28T12:43:53;23.50;;;22.02;;
21569;SDS011;57598;50.888;4.746;2023-01-28T12:46:29;27.17;;;25.17;;
21569;SDS011;57598;50.888;4.746;2023-01-28T12:49:02;22.23;;;20.88;;
21569;SDS011;57598;50.888;4.746;2023-01-28T12:51:31;23.88;;;22.48;;
21569;SDS011;57598;50.888;4.746;2023-01-28T12:54:04;24.13;;;22.65;;
21569;SDS011;57598;50.888;4.746;2023-01-28T12:56:32;26.27;;;24.33;;
21569;SDS011;57598;50.888;4.746;2023-01-28T12:59:03;24.02;;;22.42;;
21569;SDS011;57598;50.888;4.746;2023-01-28T13:01:34;24.35;;;22.67;;
21569;SDS011;57598;50.888;4.746;2023-01-28T13:04:04;22.30;;;21.00;;
21569;SDS011;57598;50.888;4.746;2023-01-28T13:06:34;22.65;;;21.35;;
21569;SDS011;57598;50.888;4.746;2023-01-28T13:11:33;25.85;;;23.90;;
21569;SDS011;57598;50.888;4.746;2023-01-28T13:14:01;22.67;;;21.38;;
21569;SDS011;57598;50.888;4.746;2023-01-28T13:16:29;24.15;;;22.58;;
21569;SDS011;57598;50.888;4.746;2023-01-28T13:19:07;24.42;;;22.92;;
21569;SDS011;57598;50.888;4.746;2023-01-28T13:21:35;23.38;;;22.08;;
21569;SDS011;57598;50.888;4.746;2023-01-28T13:24:04;24.73;;;23.15;;
21569;SDS011;57598;50.888;4.746;2023-01-28T13:26:40;23.45;;;22.05;;
21569;SDS011;57598;50.888;4.746;2023-01-28T13:29:16;23.30;;;21.80;;
21569;SDS011;57598;50.888;4.746;2023-01-28T13:31:48;25.60;;;23.77;;
21569;SDS011;57598;50.888;4.746;2023-01-28T13:39:27;25.27;;;23.17;;
21569;SDS011;57598;50.888;4.746;2023-01-28T13:42:07;23.40;;;21.55;;
21569;SDS011;57598;50.888;4.746;2023-01-28T13:44:35;23.38;;;21.75;;
21569;SDS011;57598;50.888;4.746;2023-01-28T13:47:11;21.35;;;20.15;;
21569;SDS011;57598;50.888;4.746;2023-01-28T13:49:41;24.08;;;22.58;;
21569;SDS011;57598;50.888;4.746;2023-01-28T13:52:12;23.73;;;22.17;;
21569;SDS011;57598;50.888;4.746;2023-01-28T13:54:42;22.50;;;21.20;;
21569;SDS011;57598;50.888;4.746;2023-01-28T13:57:20;21.33;;;20.02;;
21569;SDS011;57598;50.888;4.746;2023-01-28T13:59:56;22.05;;;20.65;;
21569;SDS011;57598;50.888;4.746;2023-01-28T14:02:35;24.35;;;22.67;;
21569;SDS011;57598;50.888;4.746;2023-01-28T14:05:15;21.42;;;20.10;;
21569;SDS011;57598;50.888;4.746;2023-01-28T14:08:11;20.77;;;19.58;;
21569;SDS011;57598;50.888;4.746;2023-01-28T14:10:45;22.55;;;21.25;;
21569;SDS011;57598;50.888;4.746;2023-01-28T14:13:34;22.25;;;20.88;;
21569;SDS011;57598;50.888;4.746;2023-01-28T14:16:05;24.63;;;23.05;;
21569;SDS011;57598;50.888;4.746;2023-01-28T14:18:37;22.23;;;20.95;;
21569;SDS011;57598;50.888;4.746;2023-01-28T14:21:08;25.33;;;23.05;;
21569;SDS011;57598;50.888;4.746;2023-01-28T14:23:37;24.30;;;22.70;;
21569;SDS011;57598;50.888;4.746;2023-01-28T14:26:09;21.77;;;20.58;;
21569;SDS011;57598;50.888;4.746;2023-01-28T14:28:43;21.75;;;20.45;;
21569;SDS011;57598;50.888;4.746;2023-01-28T14:31:14;24.08;;;22.42;;
21569;SDS011;57598;50.888;4.746;2023-01-28T14:33:42;22.42;;;20.98;;
21569;SDS011;57598;50.888;4.746;2023-01-28T14:36:09;20.75;;;19.40;;
21569;SDS011;57598;50.888;4.746;2023-01-28T14:38:37;19.70;;;18.60;;
21569;SDS011;57598;50.888;4.746;2023-01-28T14:41:05;23.45;;;21.92;;
21569;SDS011;57598;50.888;4.746;2023-01-28T14:43:33;23.08;;;21.58;;
21569;SDS011;57598;50.888;4.746;2023-01-28T14:46:07;21.67;;;20.48;;
21569;SDS011;57598;50.888;4.746;2023-01-28T14:48:37;20.88;;;19.67;;
21569;SDS011;57598;50.888;4.746;2023-01-28T14:51:12;21.95;;;20.67;;
21569;SDS011;57598;50.888;4.746;2023-01-28T14:53:55;21.58;;;20.38;;
21569;SDS011;57598;50.888;4.746;2023-01-28T14:56:30;22.85;;;21.52;;
21569;SDS011;57598;50.888;4.746;2023-01-28T14:59:03;22.05;;;20.75;;
21569;SDS011;57598;50.888;4.746;2023-01-28T15:01:34;23.33;;;21.92;;
21569;SDS011;57598;50.888;4.746;2023-01-28T15:04:02;21.02;;;19.83;;
21569;SDS011;57598;50.888;4.746;2023-01-28T15:06:32;21.02;;;19.83;;
21569;SDS011;57598;50.888;4.746;2023-01-28T15:09:07;23.10;;;21.50;;
21569;SDS011;57598;50.888;4.746;2023-01-28T15:11:38;21.25;;;20.02;;
21569;SDS011;57598;50.888;4.746;2023-01-28T15:14:11;24.17;;;22.43;;
21569;SDS011;57598;50.888;4.746;2023-01-28T15:19:08;22.33;;;21.02;;
21569;SDS011;57598;50.888;4.746;2023-01-28T15:21:35;23.35;;;21.88;;
21569;SDS011;57598;50.888;4.746;2023-01-28T15:24:03;21.67;;;20.48;;
21569;SDS011;57598;50.888;4.746;2023-01-28T15:26:31;21.00;;;19.80;;
21569;SDS011;57598;50.888;4.746;2023-01-28T15:28:59;20.58;;;19.38;;
21569;SDS011;57598;50.888;4.746;2023-01-28T15:31:27;20.70;;;19.50;;
21569;SDS011;57598;50.888;4.746;2023-01-28T15:34:11;21.10;;;19.90;;
21569;SDS011;57598;50.888;4.746;2023-01-28T15:51:02;22.95;;;21.65;;
21569;SDS011;57598;50.888;4.746;2023-01-28T16:42:14;23.30;;;21.95;;
21569;SDS011;57598;50.888;4.746;2023-01-28T16:44:44;26.77;;;25.27;;
21569;SDS011;57598;50.888;4.746;2023-01-28T16:49:44;24.48;;;23.08;;
21569;SDS011;57598;50.888;4.746;2023-01-28T16:52:12;25.27;;;23.88;;
21569;SDS011;57598;50.888;4.746;2023-01-28T16:54:40;24.42;;;23.02;;
21569;SDS011;57598;50.888;4.746;2023-01-28T16:57:14;23.73;;;22.42;;
21569;SDS011;57598;50.888;4.746;2023-01-28T16:59:42;23.65;;;22.33;;
21569;SDS011;57598;50.888;4.746;2023-01-28T17:02:10;23.80;;;22.50;;
21569;SDS011;57598;50.888;4.746;2023-01-28T17:04:40;24.25;;;22.92;;
21569;SDS011;57598;50.888;4.746;2023-01-28T17:07:07;23.58;;;22.27;;
21569;SDS011;57598;50.888;4.746;2023-01-28T17:09:34;22.80;;;21.50;;
21569;SDS011;57598;50.888;4.746;2023-01-28T17:12:02;24.88;;;23.48;;
21569;SDS011;57598;50.888;4.746;2023-01-28T17:14:31;22.60;;;21.30;;
21569;SDS011;57598;50.888;4.746;2023-01-28T17:16:58;25.30;;;23.77;;
21569;SDS011;57598;50.888;4.746;2023-01-28T17:19:25;23.90;;;22.50;;
21569;SDS011;57598;50.888;4.746;2023-01-28T17:21:56;24.30;;;22.90;;
21569;SDS011;57598;50.888;4.746;2023-01-28T17:24:24;24.80;;;23.40;;
21569;SDS011;57598;50.888;4.746;2023-01-28T17:26:51;24.15;;;22.75;;
21569;SDS011;57598;50.888;4.746;2023-01-28T17:29:19;25.30;;;23.80;;
21569;SDS011;57598;50.888;4.746;2023-01-28T17:31:49;25.08;;;23.67;;
21569;SDS011;57598;50.888;4.746;2023-01-28T17:34:16;24.38;;;22.98;;
21569;SDS011;57598;50.888;4.746;2023-01-28T17:36:47;25.08;;;23.67;;
21569;SDS011;57598;50.888;4.746;2023-01-28T17:39:14;26.08;;;24.58;;
21569;SDS011;57598;50.888;4.746;2023-01-28T17:41:41;24.88;;;23.48;;
21569;SDS011;57598;50.888;4.746;2023-01-28T17:44:09;26.30;;;24.80;;
21569;SDS011;57598;50.888;4.746;2023-01-28T17:46:39;25.20;;;23.80;;
21569;SDS011;57598;50.888;4.746;2023-01-28T17:49:13;25.15;;;23.75;;
21569;SDS011;57598;50.888;4.746;2023-01-28T17:54:16;24.77;;;23.38;;
21569;SDS011;57598;50.888;4.746;2023-01-28T18:05:57;26.83;;;25.33;;
21569;SDS011;57598;50.888;4.746;2023-01-28T18:08:25;26.58;;;25.08;;
21569;SDS011;57598;50.888;4.746;2023-01-28T18:10:52;29.13;;;27.42;;
21569;SDS011;57598;50.888;4.746;2023-01-28T18:13:23;27.55;;;25.95;;
21569;SDS011;57598;50.888;4.746;2023-01-28T18:15:50;27.85;;;26.25;;
21569;SDS011;57598;50.888;4.746;2023-01-28T18:18:18;27.58;;;25.98;;
21569;SDS011;57598;50.888;4.746;2023-01-28T18:20:55;27.83;;;26.23;;
21569;SDS011;57598;50.888;4.746;2023-01-28T18:28:35;31.55;;;29.75;;
21569;SDS011;57598;50.888;4.746;2023-01-28T18:31:03;30.25;;;28.55;;
21569;SDS011;57598;50.888;4.746;2023-01-28T18:33:31;31.13;;;28.88;;
21569;SDS011;57598;50.888;4.746;2023-01-28T18:35:58;30.35;;;28.63;;
21569;SDS011;57598;50.888;4.746;2023-01-28T18:38:26;30.42;;;28.63;;
21569;SDS011;57598;50.888;4.746;2023-01-28T18:40:54;30.27;;;28.48;;
21569;SDS011;57598;50.888;4.746;2023-01-28T18:43:23;31.10;;;29.30;;
21569;SDS011;57598;50.888;4.746;2023-01-28T18:45:54;30.73;;;28.92;;
21569;SDS011;57598;50.888;4.746;2023-01-28T18:48:23;33.90;;;31.70;;
21569;SDS011;57598;50.888;4.746;2023-01-28T18:50:54;31.70;;;29.80;;
21569;SDS011;57598;50.888;4.746;2023-01-28T18:53:22;32.58;;;30.58;;
21569;SDS011;57598;50.888;4.746;2023-01-28T18:55:50;34.15;;;32.15;;
21569;SDS011;57598;50.888;4.746;2023-01-28T18:58:23;32.28;;;30.38;;
21569;SDS011;57598;50.888;4.746;2023-01-28T19:00:51;34.17;;;32.17;;
21569;SDS011;57598;50.888;4.746;2023-01-28T19:03:20;34.42;;;32.38;;
21569;SDS011;57598;50.888;4.746;2023-01-28T19:05:51;36.08;;;33.70;;
21569;SDS011;57598;50.888;4.746;2023-01-28T19:08:18;35.72;;;33.53;;
21569;SDS011;57598;50.888;4.746;2023-01-28T19:10:53;34.05;;;32.05;;
21569;SDS011;57598;50.888;4.746;2023-01-28T19:13:20;33.50;;;31.50;;
21569;SDS011;57598;50.888;4.746;2023-01-28T19:15:50;35.78;;;33.67;;
21569;SDS011;57598;50.888;4.746;2023-01-28T19:18:20;35.22;;;33.13;;
21569;SDS011;57598;50.888;4.746;2023-01-28T19:20:48;36.60;;;34.40;;
21569;SDS011;57598;50.888;4.746;2023-01-28T19:23:17;35.83;;;33.60;;
21569;SDS011;57598;50.888;4.746;2023-01-28T19:25:45;36.03;;;33.88;;
21569;SDS011;57598;50.888;4.746;2023-01-28T19:28:14;38.50;;;35.78;;
21569;SDS011;57598;50.888;4.746;2023-01-28T19:30:42;40.45;;;37.95;;
21569;SDS011;57598;50.888;4.746;2023-01-28T19:33:10;36.88;;;34.67;;
21569;SDS011;57598;50.888;4.746;2023-01-28T19:35:40;35.50;;;33.40;;
21569;SDS011;57598;50.888;4.746;2023-01-28T19:38:08;38.75;;;36.38;;
21569;SDS011;57598;50.888;4.746;2023-01-28T19:40:35;37.60;;;35.30;;
21569;SDS011;57598;50.888;4.746;2023-01-28T19:43:04;42.13;;;38.63;;
21569;SDS011;57598;50.888;4.746;2023-01-28T19:45:32;39.22;;;36.83;;
21569;SDS011;57598;50.888;4.746;2023-01-28T19:47:59;39.90;;;37.50;;
21569;SDS011;57598;50.888;4.746;2023-01-28T19:50:27;39.33;;;36.85;;
21569;SDS011;57598;50.888;4.746;2023-01-28T19:52:56;40.88;;;38.38;;
21569;SDS011;57598;50.888;4.746;2023-01-28T19:57:53;39.17;;;36.78;;
21569;SDS011;57598;50.888;4.746;2023-01-28T20:00:20;39.70;;;37.30;;
21569;SDS011;57598;50.888;4.746;2023-01-28T20:02:48;41.97;;;39.47;;
21569;SDS011;57598;50.888;4.746;2023-01-28T20:05:18;39.70;;;37.40;;
21569;SDS011;57598;50.888;4.746;2023-01-28T20:07:45;44.67;;;41.78;;
21569;SDS011;57598;50.888;4.746;2023-01-28T20:10:15;42.60;;;40.03;;
21569;SDS011;57598;50.888;4.746;2023-01-28T20:12:42;41.00;;;38.50;;
21569;SDS011;57598;50.888;4.746;2023-01-28T20:15:10;42.25;;;39.65;;
21569;SDS011;57598;50.888;4.746;2023-01-28T20:17:37;42.95;;;40.33;;
21569;SDS011;57598;50.888;4.746;2023-01-28T20:20:05;43.75;;;41.05;;
21569;SDS011;57598;50.888;4.746;2023-01-28T20:22:32;42.58;;;39.88;;
21569;SDS011;57598;50.888;4.746;2023-01-28T20:27:52;48.15;;;43.80;;
21569;SDS011;57598;50.888;4.746;2023-01-28T20:30:20;42.10;;;39.50;;
21569;SDS011;57598;50.888;4.746;2023-01-28T20:32:50;43.75;;;41.05;;
21569;SDS011;57598;50.888;4.746;2023-01-28T20:35:18;45.65;;;42.85;;
21569;SDS011;57598;50.888;4.746;2023-01-28T20:37:45;44.67;;;41.88;;
21569;SDS011;57598;50.888;4.746;2023-01-28T20:40:12;47.17;;;43.72;;
21569;SDS011;57598;50.888;4.746;2023-01-28T20:42:46;46.95;;;43.92;;
21569;SDS011;57598;50.888;4.746;2023-01-28T20:45:23;46.35;;;43.45;;
21569;SDS011;57598;50.888;4.746;2023-01-28T20:47:50;45.00;;;42.20;;
21569;SDS011;57598;50.888;4.746;2023-01-28T20:50:21;45.10;;;42.30;;
21569;SDS011;57598;50.888;4.746;2023-01-28T20:52:48;47.42;;;44.53;;
21569;SDS011;57598;50.888;4.746;2023-01-28T20:55:29;45.40;;;42.60;;
21569;SDS011;57598;50.888;4.746;2023-01-28T20:57:57;49.42;;;46.20;;
21569;SDS011;57598;50.888;4.746;2023-01-28T21:00:26;44.20;;;41.45;;
21569;SDS011;57598;50.888;4.746;2023-01-28T21:02:54;45.58;;;42.75;;
21569;SDS011;57598;50.888;4.746;2023-01-28T21:05:21;46.55;;;43.65;;
21569;SDS011;57598;50.888;4.746;2023-01-28T21:10:33;46.58;;;43.58;;
21569;SDS011;57598;50.888;4.746;2023-01-28T21:13:01;49.63;;;46.53;;
21569;SDS011;57598;50.888;4.746;2023-01-28T21:15:33;46.92;;;43.97;;
21569;SDS011;57598;50.888;4.746;2023-01-28T21:18:06;49.08;;;45.97;;
21569;SDS011;57598;50.888;4.746;2023-01-28T21:20:36;52.65;;;49.35;;
21569;SDS011;57598;50.888;4.746;2023-01-28T21:23:03;50.95;;;47.55;;
21569;SDS011;57598;50.888;4.746;2023-01-28T21:25:38;49.90;;;46.80;;
21569;SDS011;57598;50.888;4.746;2023-01-28T21:28:07;55.55;;;51.97;;
21569;SDS011;57598;50.888;4.746;2023-01-28T21:30:39;49.83;;;46.72;;
21569;SDS011;57598;50.888;4.746;2023-01-28T21:33:09;51.40;;;47.90;;
21569;SDS011;57598;50.888;4.746;2023-01-28T21:35:36;50.60;;;47.40;;
21569;SDS011;57598;50.888;4.746;2023-01-28T21:38:13;50.45;;;47.17;;
21569;SDS011;57598;50.888;4.746;2023-01-28T21:40:40;51.85;;;48.55;;
21569;SDS011;57598;50.888;4.746;2023-01-28T21:43:10;52.28;;;48.78;;
21569;SDS011;57598;50.888;4.746;2023-01-28T21:45:39;51.67;;;48.38;;
21569;SDS011;57598;50.888;4.746;2023-01-28T21:48:07;53.83;;;50.33;;
21569;SDS011;57598;50.888;4.746;2023-01-28T21:50:34;50.97;;;47.67;;
21569;SDS011;57598;50.888;4.746;2023-01-28T21:53:21;52.33;;;48.95;;
21569;SDS011;57598;50.888;4.746;2023-01-28T21:55:58;52.35;;;48.95;;
21569;SDS011;57598;50.888;4.746;2023-01-28T21:58:25;52.65;;;49.25;;
21569;SDS011;57598;50.888;4.746;2023-01-28T22:01:11;49.17;;;45.97;;
21569;SDS011;57598;50.888;4.746;2023-01-28T22:03:39;51.20;;;47.92;;
21569;SDS011;57598;50.888;4.746;2023-01-28T22:06:09;51.80;;;48.50;;
21569;SDS011;57598;50.888;4.746;2023-01-28T22:08:39;56.08;;;51.65;;
21569;SDS011;57598;50.888;4.746;2023-01-28T22:11:07;53.05;;;49.55;;
21569;SDS011;57598;50.888;4.746;2023-01-28T22:13:34;55.33;;;51.45;;
21569;SDS011;57598;50.888;4.746;2023-01-28T22:16:02;54.22;;;50.35;;
21569;SDS011;57598;50.888;4.746;2023-01-28T22:18:31;51.45;;;48.15;;
21569;SDS011;57598;50.888;4.746;2023-01-28T22:20:59;53.17;;;49.78;;
21569;SDS011;57598;50.888;4.746;2023-01-28T22:23:28;51.67;;;48.38;;
21569;SDS011;57598;50.888;4.746;2023-01-28T22:25:55;52.05;;;48.75;;
21569;SDS011;57598;50.888;4.746;2023-01-28T22:28:30;52.15;;;48.75;;
21569;SDS011;57598;50.888;4.746;2023-01-28T22:31:03;54.15;;;50.65;;
21569;SDS011;57598;50.888;4.746;2023-01-28T22:33:32;55.00;;;51.42;;
21569;SDS011;57598;50.888;4.746;2023-01-28T22:35:59;53.33;;;49.85;;
21569;SDS011;57598;50.888;4.746;2023-01-28T22:38:27;53.80;;;50.40;;
21569;SDS011;57598;50.888;4.746;2023-01-28T22:40:54;54.00;;;50.50;;
21569;SDS011;57598;50.888;4.746;2023-01-28T22:43:22;53.00;;;49.55;;
21569;SDS011;57598;50.888;4.746;2023-01-28T22:45:56;54.90;;;51.33;;
21569;SDS011;57598;50.888;4.746;2023-01-28T22:48:24;62.40;;;58.20;;
21569;SDS011;57598;50.888;4.746;2023-01-28T22:50:52;56.75;;;52.95;;
21569;SDS011;57598;50.888;4.746;2023-01-28T22:53:20;55.28;;;51.67;;
21569;SDS011;57598;50.888;4.746;2023-01-28T22:55:49;58.00;;;54.10;;
21569;SDS011;57598;50.888;4.746;2023-01-28T22:58:16;59.63;;;55.50;;
21569;SDS011;57598;50.888;4.746;2023-01-28T23:00:44;57.42;;;53.53;;
21569;SDS011;57598;50.888;4.746;2023-01-28T23:03:13;54.38;;;50.78;;
21569;SDS011;57598;50.888;4.746;2023-01-28T23:05:42;55.10;;;51.50;;
21569;SDS011;57598;50.888;4.746;2023-01-28T23:08:12;64.28;;;59.83;;
21569;SDS011;57598;50.888;4.746;2023-01-28T23:10:40;57.03;;;53.22;;
21569;SDS011;57598;50.888;4.746;2023-01-28T23:13:15;56.05;;;52.35;;